Terminal Aerodrome Forecast
Issued by NWS

Home | Current Version | Previous Version | Text Only | Print | Product List | Glossary On
Versions: 1 2 3 4 5 6 7 8 9 10 11 12
734
FTUS44 KBMX 090523
TAFANB
TAF
KANB 090523Z 0906/1006 28008KT P6SM OVC050
     FM091500 27011G18KT P6SM OVC050
     FM100000 28009KT P6SM OVC100=

USA.gov is the U.S. government's official web portal to all federal, state and local government web resources and services.